createdAt,value
2023-04-12T00:01:18.768Z,93.00
2023-04-12T00:03:51.048Z,92.95
2023-04-12T00:06:18.557Z,92.78
2023-04-12T00:08:47.012Z,92.39
2023-04-12T00:11:14.335Z,91.95
2023-04-12T00:13:41.984Z,91.87
2023-04-12T00:16:10.212Z,92.01
2023-04-12T00:18:37.805Z,91.58
2023-04-12T00:21:05.570Z,91.87
2023-04-12T00:23:33.975Z,92.16
2023-04-12T00:26:01.290Z,91.62
2023-04-12T00:28:28.868Z,91.26
2023-04-12T00:30:56.154Z,91.52
2023-04-12T00:33:23.879Z,90.97
2023-04-12T00:35:51.225Z,90.52
2023-04-12T00:38:18.929Z,90.31
2023-04-12T00:40:46.397Z,90.51
2023-04-12T00:43:18.948Z,90.46
2023-04-12T00:45:47.920Z,90.46
2023-04-12T00:48:16.659Z,90.62
2023-04-12T00:50:47.703Z,90.75
2023-04-12T00:53:17.765Z,90.78
2023-04-12T00:55:46.455Z,91.06
2023-04-12T00:58:15.062Z,91.50
2023-04-12T01:00:50.348Z,90.15
2023-04-12T01:03:27.827Z,90.29
2023-04-12T01:06:38.633Z,90.22
2023-04-12T01:09:25.812Z,90.31
2023-04-12T01:12:02.097Z,90.00
2023-04-12T01:15:06.804Z,89.81
2023-04-12T01:17:44.185Z,89.87
2023-04-12T01:20:48.567Z,90.84
2023-04-12T01:23:56.729Z,90.10
2023-04-12T01:26:49.120Z,90.46
2023-04-12T01:29:21.270Z,89.95
2023-04-12T01:32:12.404Z,90.07
2023-04-12T01:34:42.578Z,89.80
2023-04-12T01:37:10.684Z,90.00
2023-04-12T01:39:38.865Z,89.64
2023-04-12T01:42:06.741Z,89.15
2023-04-12T01:44:33.996Z,89.34
2023-04-12T01:47:01.598Z,89.47
2023-04-12T01:49:54.167Z,88.99
2023-04-12T01:52:27.246Z,89.29
2023-04-12T01:54:59.354Z,89.06
2023-04-12T01:57:27.937Z,88.75
2023-04-12T01:59:59.094Z,89.06
2023-04-12T02:02:27.482Z,89.09
2023-04-12T02:04:56.604Z,88.88
2023-04-12T02:07:24.263Z,88.42
2023-04-12T02:09:51.589Z,88.89
2023-04-12T02:12:19.220Z,89.22
2023-04-12T02:14:47.198Z,89.76
2023-04-12T02:17:14.827Z,90.09
2023-04-12T02:19:42.078Z,90.10
2023-04-12T02:22:09.827Z,90.51
2023-04-12T02:24:37.222Z,89.95
2023-04-12T02:27:04.898Z,89.87
2023-04-12T02:29:32.167Z,90.09
2023-04-12T02:31:59.783Z,90.27
2023-04-12T02:34:27.209Z,90.19
2023-04-12T02:36:54.850Z,89.36
2023-04-12T02:39:22.394Z,89.34
2023-04-12T02:41:50.081Z,89.32
2023-04-12T02:44:17.274Z,89.34
2023-04-12T02:46:44.887Z,89.47
2023-04-12T02:49:12.092Z,88.95
2023-04-12T02:51:40.139Z,88.53
2023-04-12T02:54:07.435Z,88.38
2023-04-12T02:56:38.145Z,87.97
2023-04-12T02:59:06.920Z,88.16
2023-04-12T03:01:35.008Z,87.72
2023-04-12T03:04:02.568Z,87.53
2023-04-12T03:06:30.370Z,87.03
2023-04-12T03:08:58.270Z,86.70
2023-04-12T03:11:26.084Z,87.06
2023-04-12T03:13:53.538Z,87.11
2023-04-12T03:16:26.219Z,87.12
2023-04-12T03:18:53.617Z,87.06
2023-04-12T03:21:21.245Z,86.83
2023-04-12T03:23:48.613Z,86.15
2023-04-12T03:26:16.195Z,86.44
2023-04-12T03:28:43.489Z,85.73
2023-04-12T03:31:11.057Z,85.57
2023-04-12T03:33:39.066Z,85.93
2023-04-12T03:36:07.505Z,85.86
2023-04-12T03:38:34.832Z,85.97
2023-04-12T03:41:02.407Z,85.51
2023-04-12T03:43:35.959Z,85.52
2023-04-12T03:46:07.029Z,85.23
2023-04-12T03:48:34.992Z,85.44
2023-04-12T03:51:07.868Z,86.03
2023-04-12T03:53:35.445Z,85.73
2023-04-12T03:56:03.044Z,85.51
2023-04-12T03:58:30.468Z,85.52
2023-04-12T04:00:58.276Z,85.28
2023-04-12T04:03:27.208Z,85.29
2023-04-12T04:05:55.907Z,85.07
2023-04-12T04:08:23.211Z,84.94
2023-04-12T04:10:50.921Z,84.30
2023-04-12T04:13:18.166Z,84.70
2023-04-12T04:15:46.192Z,84.68
2023-04-12T04:18:13.432Z,84.91
2023-04-12T04:20:41.564Z,84.97
2023-04-12T04:23:10.365Z,84.70
2023-04-12T04:25:39.434Z,84.76
2023-04-12T04:28:07.971Z,85.02
2023-04-12T04:30:39.172Z,85.13
2023-04-12T04:33:07.328Z,85.12
2023-04-12T04:35:34.996Z,84.58
2023-04-12T04:38:02.218Z,84.56
2023-04-12T04:40:29.927Z,84.33
2023-04-12T04:42:57.975Z,84.02
2023-04-12T04:45:26.782Z,84.20
2023-04-12T04:47:55.402Z,84.12
2023-04-12T04:50:25.184Z,84.20
2023-04-12T04:52:52.666Z,83.74
2023-04-12T04:55:24.955Z,83.43
2023-04-12T04:57:52.265Z,83.15
2023-04-12T05:00:21.633Z,82.62
2023-04-12T05:02:49.045Z,82.55
2023-04-12T05:05:17.308Z,82.49
2023-04-12T05:07:44.668Z,82.69
2023-04-12T05:10:12.437Z,83.23
2023-04-12T05:12:39.942Z,83.60
2023-04-12T05:15:11.462Z,83.10
2023-04-12T05:17:39.233Z,82.43
2023-04-12T05:20:08.160Z,82.69
2023-04-12T05:22:36.178Z,82.91
2023-04-12T05:25:04.047Z,83.42
2023-04-12T05:27:31.565Z,82.58
2023-04-12T05:29:59.266Z,82.69
2023-04-12T05:32:26.865Z,83.18
2023-04-12T05:34:54.500Z,83.18
2023-04-12T05:37:21.823Z,82.48
2023-04-12T05:39:49.448Z,82.43
2023-04-12T05:42:16.823Z,82.20
2023-04-12T05:44:46.501Z,81.85
2023-04-12T05:47:15.101Z,81.74
2023-04-12T05:49:42.766Z,81.55
2023-04-12T05:52:10.187Z,81.39
2023-04-12T05:54:37.790Z,80.81
2023-04-12T05:57:05.126Z,80.80
2023-04-12T05:59:32.720Z,80.31
2023-04-12T06:02:00.961Z,78.90
2023-04-12T06:04:42.103Z,78.32
2023-04-12T06:07:19.025Z,76.79
2023-04-12T06:09:47.417Z,75.49
2023-04-12T06:12:14.848Z,74.66
2023-04-12T06:14:42.776Z,74.73
2023-04-12T06:17:10.103Z,73.30
2023-04-12T06:19:37.748Z,72.41
2023-04-12T06:22:05.001Z,72.23
2023-04-12T06:24:32.724Z,72.15
2023-04-12T06:26:59.915Z,72.51
2023-04-12T06:29:27.562Z,72.53
2023-04-12T06:31:54.855Z,72.06
2023-04-12T06:34:22.483Z,71.63
2023-04-12T06:36:49.866Z,71.46
2023-04-12T06:39:17.689Z,69.76
2023-04-12T06:41:47.481Z,69.61
2023-04-12T06:44:15.076Z,68.73
2023-04-12T06:46:42.691Z,67.21
2023-04-12T06:49:10.736Z,65.28
2023-04-12T06:51:37.954Z,63.73
2023-04-12T06:54:06.133Z,60.48
2023-04-12T06:56:33.588Z,60.99
2023-04-12T06:59:01.420Z,58.36
2023-04-12T07:01:28.766Z,53.64
2023-04-12T07:03:56.662Z,48.18
2023-04-12T07:06:25.998Z,43.21
2023-04-12T07:08:54.515Z,44.91
2023-04-12T07:11:23.251Z,46.58
2023-04-12T07:13:51.830Z,45.07
2023-04-12T07:16:19.472Z,48.04
2023-04-12T07:18:47.701Z,48.74
2023-04-12T07:21:17.556Z,40.91
2023-04-12T07:23:46.674Z,39.26
2023-04-12T07:26:14.059Z,41.75
2023-04-12T07:28:41.664Z,44.87
2023-04-12T07:31:09.278Z,46.81
2023-04-12T07:33:39.409Z,44.89
2023-04-12T07:36:08.496Z,36.91
2023-04-12T07:38:36.268Z,40.73
2023-04-12T07:41:03.783Z,41.53
2023-04-12T07:43:31.451Z,33.10
2023-04-12T07:45:59.445Z,32.32
2023-04-12T07:48:27.211Z,28.66
2023-04-12T07:50:54.540Z,32.08
2023-04-12T07:53:29.654Z,36.45
2023-04-12T07:55:57.230Z,38.10
2023-04-12T07:58:25.532Z,39.81
2023-04-12T08:00:54.164Z,35.48
2023-04-12T08:03:21.991Z,34.11
2023-04-12T08:05:53.613Z,36.45
2023-04-12T08:08:22.812Z,38.21
2023-04-12T08:10:52.100Z,38.03
2023-04-12T08:13:20.379Z,29.70
2023-04-12T08:15:48.252Z,23.23
2023-04-12T08:18:16.210Z,19.32
2023-04-12T08:20:44.361Z,18.10
2023-04-12T08:23:12.530Z,22.88
2023-04-12T08:25:40.167Z,26.43
2023-04-12T08:28:10.984Z,28.90
2023-04-12T08:30:38.462Z,30.65
2023-04-12T08:33:06.208Z,32.92
2023-04-12T08:35:33.983Z,34.28
2023-04-12T08:38:07.507Z,34.68
2023-04-12T08:40:35.856Z,34.30
2023-04-12T08:43:12.564Z,34.44
2023-04-12T08:45:40.021Z,35.49
2023-04-12T08:48:07.836Z,37.94
2023-04-12T08:50:35.199Z,39.07
2023-04-12T08:53:03.856Z,39.61
2023-04-12T08:55:31.221Z,39.99
2023-04-12T08:58:00.225Z,40.41
2023-04-12T09:00:27.902Z,37.69
2023-04-12T09:02:55.842Z,28.72
2023-04-12T09:05:30.414Z,26.12
2023-04-12T09:07:59.052Z,21.95
2023-04-12T09:10:37.042Z,23.28
2023-04-12T09:13:06.499Z,23.11
2023-04-12T09:15:34.963Z,19.06
2023-04-12T09:18:17.136Z,21.33
2023-04-12T09:20:44.814Z,20.26
2023-04-12T09:23:21.930Z,21.16
2023-04-12T09:25:52.829Z,24.00
2023-04-12T09:28:26.751Z,25.44
2023-04-12T09:30:56.325Z,20.82
2023-04-12T09:33:39.218Z,21.06
2023-04-12T09:36:14.451Z,17.22
2023-04-12T09:39:04.533Z,12.22
2023-04-12T09:41:32.208Z,10.94
2023-04-12T09:44:01.717Z,9.39
2023-04-12T09:46:29.195Z,10.07
2023-04-12T09:49:03.296Z,13.01
2023-04-12T09:51:36.507Z,9.59
2023-04-12T09:54:06.968Z,7.68
2023-04-12T09:56:36.766Z,8.90
2023-04-12T09:59:07.275Z,12.38
2023-04-12T10:01:42.386Z,14.69
2023-04-12T10:04:10.540Z,17.73
2023-04-12T10:06:38.065Z,20.67
2023-04-12T10:09:06.962Z,22.75
2023-04-12T10:11:34.882Z,23.14
2023-04-12T10:14:03.562Z,18.04
2023-04-12T10:16:34.145Z,19.97
2023-04-12T10:19:04.389Z,21.72
2023-04-12T10:21:32.120Z,22.61
2023-04-12T10:24:01.082Z,21.03
2023-04-12T10:26:28.660Z,16.66
2023-04-12T10:29:26.222Z,10.59
2023-04-12T10:31:59.440Z,9.25
2023-04-12T10:34:31.572Z,7.81
2023-04-12T10:37:01.298Z,6.02
2023-04-12T10:39:44.493Z,5.43
2023-04-12T10:42:20.618Z,7.18
2023-04-12T10:44:49.040Z,6.34
2023-04-12T10:47:17.435Z,8.00
2023-04-12T10:50:26.738Z,10.80
2023-04-12T10:53:18.343Z,9.92
2023-04-12T10:55:46.160Z,13.48
2023-04-12T10:58:48.874Z,15.03
2023-04-12T11:01:18.818Z,15.56
2023-04-12T11:04:16.865Z,16.64
2023-04-12T11:06:54.932Z,17.17
2023-04-12T11:09:25.978Z,15.83
2023-04-12T11:12:17.248Z,17.93
2023-04-12T11:14:52.048Z,19.24
2023-04-12T11:17:23.240Z,20.82
2023-04-12T11:20:02.336Z,22.30
2023-04-12T11:22:33.851Z,23.11
2023-04-12T11:25:03.537Z,23.76
2023-04-12T11:27:32.362Z,24.52
2023-04-12T11:30:01.614Z,25.10
2023-04-12T11:32:31.026Z,25.14
2023-04-12T11:34:59.401Z,25.28
2023-04-12T11:37:27.441Z,25.19
2023-04-12T11:39:58.607Z,25.46
2023-04-12T11:42:29.415Z,25.36
2023-04-12T11:45:00.520Z,25.84
2023-04-12T11:47:30.987Z,26.00
2023-04-12T11:49:59.530Z,25.84
2023-04-12T11:52:32.708Z,26.06
2023-04-12T11:55:07.013Z,26.05
2023-04-12T11:57:35.595Z,26.11
2023-04-12T12:00:06.635Z,25.98
2023-04-12T12:02:43.728Z,26.02
2023-04-12T12:05:13.892Z,25.01
2023-04-12T12:07:42.040Z,24.44
2023-04-12T12:10:10.576Z,24.58
2023-04-12T12:12:38.313Z,23.70
2023-04-12T12:15:06.472Z,23.33
2023-04-12T12:17:40.707Z,22.94
2023-04-12T12:20:20.561Z,20.77
2023-04-12T12:22:49.247Z,21.84
2023-04-12T12:25:19.467Z,22.59
2023-04-12T12:27:51.372Z,22.18
2023-04-12T12:30:22.174Z,22.91
2023-04-12T12:32:54.538Z,23.12
2023-04-12T12:35:21.862Z,23.70
2023-04-12T12:37:52.683Z,23.59
2023-04-12T12:40:32.563Z,23.42
2023-04-12T12:43:00.899Z,23.54
2023-04-12T12:45:31.590Z,23.29
2023-04-12T12:48:05.005Z,23.39
2023-04-12T12:50:35.045Z,23.36
2023-04-12T12:53:04.128Z,23.32
2023-04-12T12:55:31.923Z,23.41
2023-04-12T13:00:30.514Z,23.37
2023-04-12T13:02:58.966Z,24.09
2023-04-12T13:05:26.665Z,23.72
2023-04-12T13:07:54.273Z,23.26
2023-04-12T13:10:21.694Z,23.30
2023-04-12T13:12:49.376Z,23.77
2023-04-12T13:15:23.132Z,23.27
2023-04-12T13:17:53.600Z,24.72
2023-04-12T13:20:24.361Z,23.82
2023-04-12T13:22:52.296Z,24.64
2023-04-12T13:25:20.977Z,25.11
2023-04-12T13:27:50.370Z,25.18
2023-04-12T13:30:19.926Z,24.84
2023-04-12T13:32:47.598Z,25.26
2023-04-12T13:35:14.960Z,24.44
2023-04-12T13:37:42.633Z,24.47
2023-04-12T13:40:10.430Z,23.72
2023-04-12T13:42:38.070Z,23.53
2023-04-12T13:45:07.114Z,23.74
2023-04-12T13:47:35.497Z,23.91
2023-04-12T13:50:02.931Z,23.20
2023-04-12T13:52:30.540Z,23.08
2023-04-12T13:54:59.707Z,22.77
2023-04-12T13:57:27.290Z,22.57
2023-04-12T13:59:54.597Z,22.01
2023-04-12T14:02:22.027Z,21.46
2023-04-12T14:04:55.238Z,21.75
2023-04-12T14:07:29.549Z,21.77
2023-04-12T14:09:57.898Z,22.00
2023-04-12T14:12:25.139Z,22.25
2023-04-12T14:14:52.806Z,22.59
2023-04-12T14:17:20.142Z,22.68
2023-04-12T14:19:47.829Z,22.96
2023-04-12T14:22:15.026Z,22.73
2023-04-12T14:24:42.600Z,22.72
2023-04-12T14:27:09.935Z,23.07
2023-04-12T14:29:39.628Z,23.43
2023-04-12T14:32:06.829Z,23.98
2023-04-12T14:34:34.542Z,24.36
2023-04-12T14:37:01.887Z,25.75
2023-04-12T14:39:30.879Z,25.34
2023-04-12T14:41:58.184Z,26.90
2023-04-12T14:44:26.461Z,27.65
2023-04-12T14:46:53.806Z,28.21
2023-04-12T14:49:21.431Z,28.97
2023-04-12T14:51:48.654Z,29.02
2023-04-12T14:54:16.311Z,29.13
2023-04-12T14:56:51.471Z,29.23
2023-04-12T14:59:20.263Z,29.86
2023-04-12T15:01:47.648Z,30.22
2023-04-12T15:04:15.449Z,31.31
2023-04-12T15:06:43.830Z,31.56
2023-04-12T15:09:13.598Z,31.72
2023-04-12T15:11:46.324Z,31.67
2023-04-12T15:14:20.961Z,31.47
2023-04-12T15:16:51.874Z,32.17
2023-04-12T15:19:23.106Z,32.31
2023-04-12T15:21:55.521Z,32.53
2023-04-12T15:24:25.128Z,32.88
2023-04-12T15:26:53.298Z,33.36
2023-04-12T15:29:26.863Z,33.23
2023-04-12T15:31:56.714Z,33.10
2023-04-12T15:34:25.326Z,32.77
2023-04-12T15:36:53.016Z,32.87
2023-04-12T15:39:21.293Z,32.90
2023-04-12T15:41:48.888Z,32.73
2023-04-12T15:44:16.814Z,33.27
2023-04-12T15:46:56.053Z,32.62
2023-04-12T15:49:32.075Z,33.27
2023-04-12T15:52:00.833Z,32.81
2023-04-12T15:54:28.503Z,32.71
2023-04-12T15:56:55.863Z,32.89
2023-04-12T15:59:24.104Z,32.62
2023-04-12T16:01:52.349Z,32.47
2023-04-12T16:04:20.732Z,33.06
2023-04-12T16:06:48.212Z,32.90
2023-04-12T16:09:16.857Z,33.09
2023-04-12T16:11:46.538Z,32.94
2023-04-12T16:14:14.758Z,33.54
2023-04-12T16:16:42.166Z,33.65
2023-04-12T16:19:09.961Z,34.25
2023-04-12T16:21:40.560Z,34.60
2023-04-12T16:24:10.275Z,34.55
2023-04-12T16:26:39.262Z,34.78
2023-04-12T16:29:06.868Z,34.70
2023-04-12T16:31:34.254Z,34.59
2023-04-12T16:34:02.180Z,34.61
2023-04-12T16:36:31.480Z,34.42
2023-04-12T16:39:01.217Z,34.72
2023-04-12T16:41:28.587Z,34.63
2023-04-12T16:44:01.688Z,35.35
2023-04-12T16:46:29.083Z,35.56
2023-04-12T16:48:59.140Z,35.47
2023-04-12T16:51:27.280Z,35.71
2023-04-12T16:54:04.849Z,35.74
2023-04-12T16:56:32.339Z,35.52
2023-04-12T16:59:00.187Z,35.46
2023-04-12T17:01:27.511Z,35.86
2023-04-12T17:03:55.226Z,35.83
2023-04-12T17:06:22.638Z,36.30
2023-04-12T17:08:50.257Z,36.08
2023-04-12T17:11:17.544Z,36.35
2023-04-12T17:13:46.442Z,37.34
2023-04-12T17:16:16.330Z,37.67
2023-04-12T17:18:44.206Z,37.95
2023-04-12T17:21:11.879Z,38.09
2023-04-12T17:23:39.599Z,38.37
2023-04-12T17:26:08.433Z,39.06
2023-04-12T17:28:38.948Z,39.39
2023-04-12T17:31:08.994Z,39.60
2023-04-12T17:33:37.818Z,39.32
2023-04-12T17:36:11.347Z,39.01
2023-04-12T17:38:39.331Z,39.01
2023-04-12T17:41:09.366Z,39.27
2023-04-12T17:43:37.024Z,39.68
2023-04-12T17:46:05.830Z,39.81
2023-04-12T17:48:33.488Z,39.61
2023-04-12T17:51:02.499Z,39.89
2023-04-12T17:53:30.139Z,40.09
2023-04-12T17:55:57.674Z,40.32
2023-04-12T17:58:25.203Z,40.41
2023-04-12T18:00:52.701Z,41.07
2023-04-12T18:03:20.712Z,41.44
2023-04-12T18:05:48.226Z,41.72
2023-04-12T18:08:17.121Z,42.22
2023-04-12T18:10:45.553Z,43.12
2023-04-12T18:13:13.168Z,43.15
2023-04-12T18:15:40.521Z,43.29
2023-04-12T18:18:08.220Z,42.88
2023-04-12T18:20:35.702Z,43.14
2023-04-12T18:23:03.420Z,43.07
2023-04-12T18:25:31.049Z,43.53
2023-04-12T18:27:59.166Z,44.07
2023-04-12T18:30:26.531Z,44.04
2023-04-12T18:32:54.237Z,44.66
2023-04-12T18:35:21.638Z,45.05
2023-04-12T18:37:49.232Z,45.48
2023-04-12T18:40:16.807Z,46.39
2023-04-12T18:42:46.135Z,46.62
2023-04-12T18:45:13.471Z,46.85
2023-04-12T18:47:42.218Z,47.04
2023-04-12T18:50:10.182Z,47.15
2023-04-12T18:52:38.845Z,47.26
2023-04-12T18:55:07.247Z,47.74
2023-04-12T18:57:34.858Z,48.51
2023-04-12T19:00:05.620Z,48.80
2023-04-12T19:02:34.739Z,48.69
2023-04-12T19:05:03.163Z,49.34
2023-04-12T19:07:31.142Z,49.74
2023-04-12T19:09:58.437Z,49.92
2023-04-12T19:12:26.250Z,50.81
2023-04-12T19:14:53.617Z,51.63
2023-04-12T19:17:27.815Z,51.58
2023-04-12T19:19:56.056Z,52.07
2023-04-12T19:22:27.482Z,52.54
2023-04-12T19:24:55.065Z,53.09
2023-04-12T19:27:23.222Z,53.32
2023-04-12T19:29:51.786Z,54.36
2023-04-12T19:32:19.635Z,54.21
2023-04-12T19:34:47.805Z,55.34
2023-04-12T19:37:15.385Z,55.94
2023-04-12T19:39:42.679Z,56.10
2023-04-12T19:42:11.075Z,56.56
2023-04-12T19:44:40.279Z,56.76
2023-04-12T19:47:08.168Z,57.67
2023-04-12T19:49:36.974Z,57.68
2023-04-12T19:52:05.783Z,58.07
2023-04-12T19:54:33.631Z,57.66
2023-04-12T19:57:04.615Z,57.83
2023-04-12T19:59:34.444Z,57.92
2023-04-12T20:02:02.103Z,58.99
2023-04-12T20:04:36.435Z,58.86
2023-04-12T20:07:04.914Z,58.33
2023-04-12T20:09:32.420Z,59.43
2023-04-12T20:12:00.060Z,59.45
2023-04-12T20:14:27.427Z,59.65
2023-04-12T20:16:56.966Z,59.50
2023-04-12T20:19:25.557Z,60.34
2023-04-12T20:22:00.480Z,60.14
2023-04-12T20:24:30.146Z,60.99
2023-04-12T20:26:57.876Z,61.32
2023-04-12T20:29:25.244Z,62.29
2023-04-12T20:31:53.748Z,62.95
2023-04-12T20:34:21.169Z,62.75
2023-04-12T20:36:48.769Z,63.10
2023-04-12T20:39:16.421Z,63.02
2023-04-12T20:41:50.047Z,63.50
2023-04-12T20:44:19.957Z,63.55
2023-04-12T20:46:49.097Z,63.42
2023-04-12T20:49:16.742Z,63.71
2023-04-12T20:51:46.832Z,63.41
2023-04-12T20:54:14.436Z,63.65
2023-04-12T20:56:42.106Z,64.72
2023-04-12T20:59:10.536Z,65.71
2023-04-12T21:01:38.211Z,66.03
2023-04-12T21:04:06.777Z,66.19
2023-04-12T21:06:34.670Z,66.32
2023-04-12T21:09:04.384Z,66.55
2023-04-12T21:11:32.364Z,67.13
2023-04-12T21:13:59.692Z,67.20
2023-04-12T21:16:27.364Z,67.15
2023-04-12T21:18:54.699Z,67.77
2023-04-12T21:21:22.655Z,67.67
2023-04-12T21:23:51.595Z,67.80
2023-04-12T21:26:19.153Z,68.50
2023-04-12T21:28:46.510Z,68.86
2023-04-12T21:31:14.168Z,69.92
2023-04-12T21:33:41.827Z,70.45
2023-04-12T21:36:10.294Z,70.01
2023-04-12T21:38:37.600Z,70.68
2023-04-12T21:41:13.009Z,71.27
2023-04-12T21:43:40.877Z,71.69
2023-04-12T21:46:09.089Z,72.81
2023-04-12T21:48:36.977Z,72.67
2023-04-12T21:51:10.836Z,73.23
2023-04-12T21:53:38.083Z,73.25
2023-04-12T21:56:06.606Z,73.88
2023-04-12T21:58:34.240Z,74.80
2023-04-12T22:01:02.643Z,74.05
2023-04-12T22:03:30.039Z,73.53
2023-04-12T22:06:04.267Z,73.93
2023-04-12T22:08:33.208Z,74.56
2023-04-12T22:11:01.490Z,75.36
2023-04-12T22:13:28.899Z,75.35
2023-04-12T22:15:57.906Z,75.60
2023-04-12T22:18:25.250Z,75.82
2023-04-12T22:20:53.042Z,76.00
2023-04-12T22:23:20.293Z,76.64
2023-04-12T22:25:49.619Z,76.47
2023-04-12T22:28:17.185Z,76.59
2023-04-12T22:30:46.864Z,77.18
2023-04-12T22:33:16.006Z,76.82
2023-04-12T22:35:44.140Z,77.51
2023-04-12T22:38:13.928Z,77.13
2023-04-12T22:40:41.429Z,76.93
2023-04-12T22:43:18.130Z,76.54
2023-04-12T22:45:48.391Z,76.66
2023-04-12T22:48:15.979Z,76.50
2023-04-12T22:50:47.063Z,76.27
2023-04-12T22:53:15.894Z,77.15
2023-04-12T22:55:44.021Z,77.39
2023-04-12T22:58:11.391Z,77.71
2023-04-12T23:00:39.471Z,77.74
2023-04-12T23:03:10.907Z,78.45
2023-04-12T23:05:39.093Z,78.82
2023-04-12T23:08:06.428Z,78.30
2023-04-12T23:10:34.324Z,78.33
2023-04-12T23:13:01.556Z,79.22
2023-04-12T23:15:30.611Z,79.16
2023-04-12T23:17:57.821Z,78.68
2023-04-12T23:20:25.443Z,78.51
2023-04-12T23:22:58.161Z,79.24
2023-04-12T23:25:39.762Z,78.73
2023-04-12T23:28:13.255Z,79.39
2023-04-12T23:30:49.674Z,79.35
2023-04-12T23:33:21.654Z,79.29
2023-04-12T23:35:55.987Z,79.41
2023-04-12T23:38:32.321Z,79.48
2023-04-12T23:41:06.367Z,79.33
2023-04-12T23:43:34.973Z,79.49
2023-04-12T23:46:03.557Z,79.32
2023-04-12T23:48:32.834Z,79.12
2023-04-12T23:51:00.755Z,79.18
2023-04-12T23:53:28.184Z,79.11
2023-04-12T23:55:56.142Z,78.69
2023-04-12T23:58:25.537Z,78.64
